createdAt,value
2019-01-08T00:03:14.440Z,78.26
2019-01-08T00:08:09.057Z,78.56
2019-01-08T00:13:03.676Z,78.69
2019-01-08T00:17:58.295Z,78.43
2019-01-08T00:22:52.913Z,78.09
2019-01-08T00:27:47.525Z,78.32
2019-01-08T00:32:42.116Z,78.30
2019-01-08T00:37:36.728Z,78.54
2019-01-08T00:42:31.333Z,78.36
2019-01-08T00:47:26.012Z,78.80
2019-01-08T00:52:20.732Z,78.61
2019-01-08T00:57:15.338Z,80.64
2019-01-08T01:02:09.946Z,80.16
2019-01-08T01:07:04.558Z,79.39
2019-01-08T01:11:59.162Z,79.41
2019-01-08T01:16:53.769Z,80.64
2019-01-08T01:21:48.458Z,80.93
2019-01-08T01:26:43.068Z,81.07
2019-01-08T01:31:37.673Z,81.12
2019-01-08T01:36:32.272Z,82.14
2019-01-08T01:41:26.871Z,83.04
2019-01-08T01:46:21.487Z,83.39
2019-01-08T01:51:16.124Z,83.83
2019-01-08T01:56:10.725Z,83.99
2019-01-08T02:01:05.412Z,84.62
2019-01-08T02:06:00.022Z,85.31
2019-01-08T02:10:54.641Z,85.67
2019-01-08T02:15:49.242Z,86.72
2019-01-08T02:20:43.860Z,87.09
2019-01-08T02:25:38.477Z,87.42
2019-01-08T02:30:33.120Z,87.30
2019-01-08T02:35:27.758Z,86.50
2019-01-08T02:40:22.369Z,87.38
2019-01-08T02:45:16.974Z,87.86
2019-01-08T02:50:11.590Z,88.26
2019-01-08T02:55:06.494Z,87.90
2019-01-08T03:00:01.121Z,88.48
2019-01-08T03:04:55.772Z,87.65
2019-01-08T03:09:50.405Z,87.62
2019-01-08T03:14:45.007Z,87.76
2019-01-08T03:19:39.612Z,87.26
2019-01-08T03:24:34.247Z,88.15
2019-01-08T03:29:33.492Z,88.88
2019-01-08T03:34:25.192Z,88.37
2019-01-08T03:39:19.778Z,89.17
2019-01-08T03:44:14.384Z,88.93
2019-01-08T03:49:08.995Z,89.85
2019-01-08T03:54:03.680Z,89.88
2019-01-08T03:58:58.262Z,90.00
2019-01-08T04:03:52.883Z,88.95
2019-01-08T04:08:47.491Z,89.14
2019-01-08T04:13:42.120Z,88.98
2019-01-08T04:18:36.699Z,88.52
2019-01-08T04:23:31.308Z,88.15
2019-01-08T04:28:25.936Z,87.60
2019-01-08T04:33:20.567Z,86.96
2019-01-08T04:38:15.227Z,87.43
2019-01-08T04:43:09.850Z,86.87
2019-01-08T04:48:04.514Z,87.58
2019-01-08T04:52:59.121Z,87.47
2019-01-08T04:57:53.793Z,86.61
2019-01-08T05:02:48.417Z,86.68
2019-01-08T05:07:43.004Z,85.77
2019-01-08T05:12:37.653Z,86.93
2019-01-08T05:17:33.614Z,86.33
2019-01-08T05:22:28.219Z,86.96
2019-01-08T05:27:22.809Z,86.97
2019-01-08T05:32:17.428Z,87.37
2019-01-08T05:37:12.028Z,86.26
2019-01-08T05:42:06.633Z,86.98
2019-01-08T05:47:01.220Z,86.36
2019-01-08T05:51:55.825Z,85.39
2019-01-08T05:56:50.407Z,86.15
2019-01-08T06:01:45.049Z,85.79
2019-01-08T06:06:39.616Z,85.51
2019-01-08T06:11:34.221Z,85.83
2019-01-08T06:16:28.811Z,86.06
2019-01-08T06:21:23.430Z,84.73
2019-01-08T06:26:18.027Z,85.31
2019-01-08T06:31:13.158Z,85.28
2019-01-08T06:36:07.900Z,85.40
2019-01-08T06:41:02.498Z,84.14
2019-01-08T06:45:57.085Z,84.23
2019-01-08T06:50:55.985Z,83.45
2019-01-08T06:55:48.016Z,84.27
2019-01-08T07:00:42.631Z,84.12
2019-01-08T07:05:37.218Z,83.94
2019-01-08T07:10:31.833Z,84.17
2019-01-08T07:15:26.451Z,85.46
2019-01-08T07:20:21.064Z,85.44
2019-01-08T07:25:15.662Z,84.86
2019-01-08T07:30:10.473Z,84.91
2019-01-08T07:35:05.669Z,85.74
2019-01-08T07:40:00.286Z,86.34
2019-01-08T07:44:55.014Z,85.93
2019-01-08T07:49:49.648Z,86.39
2019-01-08T07:54:44.242Z,86.36
2019-01-08T07:59:38.861Z,85.26
2019-01-08T08:04:33.578Z,85.12
2019-01-08T08:09:29.119Z,84.23
2019-01-08T08:14:24.689Z,83.89
2019-01-08T08:19:19.480Z,83.97
2019-01-08T08:24:14.123Z,84.06
2019-01-08T08:29:08.919Z,84.65
2019-01-08T08:34:03.494Z,85.17
2019-01-08T08:38:58.210Z,84.93
2019-01-08T08:43:53.171Z,84.91
2019-01-08T08:48:50.030Z,84.52
2019-01-08T08:53:52.161Z,84.74
2019-01-08T08:58:41.007Z,84.66
2019-01-08T09:03:40.156Z,84.14
2019-01-08T09:08:39.013Z,83.94
2019-01-08T09:13:39.651Z,83.99
2019-01-08T09:18:39.693Z,83.73
2019-01-08T09:23:34.667Z,84.43
2019-01-08T09:28:29.727Z,84.13
2019-01-08T09:33:24.360Z,83.18
2019-01-08T09:38:18.979Z,82.59
2019-01-08T09:43:16.574Z,83.33
2019-01-08T09:48:11.989Z,83.92
2019-01-08T09:53:07.145Z,84.04
2019-01-08T09:58:03.703Z,84.85
2019-01-08T10:02:58.376Z,85.01
2019-01-08T10:07:52.999Z,84.64
2019-01-08T10:12:48.343Z,84.58
2019-01-08T10:17:43.565Z,84.48
2019-01-08T10:22:38.579Z,84.20
2019-01-08T10:27:33.199Z,84.90
2019-01-08T10:32:27.810Z,85.32
2019-01-08T10:37:22.438Z,85.08
2019-01-08T10:42:17.074Z,84.91
2019-01-08T10:47:11.957Z,85.17
2019-01-08T10:52:06.700Z,86.05
2019-01-08T10:57:01.306Z,86.15
2019-01-08T11:01:55.977Z,85.35
2019-01-08T11:06:50.725Z,84.87
2019-01-08T11:11:45.352Z,84.63
2019-01-08T11:16:40.019Z,84.72
2019-01-08T11:21:34.625Z,84.80
2019-01-08T11:26:29.937Z,83.81
2019-01-08T11:31:29.056Z,83.92
2019-01-08T11:36:28.143Z,82.58
2019-01-08T11:41:26.848Z,82.96
2019-01-08T11:46:28.697Z,82.43
2019-01-08T11:51:28.805Z,82.23
2019-01-08T11:56:23.803Z,81.80
2019-01-08T12:01:18.411Z,80.00
2019-01-08T12:06:13.123Z,79.46
2019-01-08T12:11:07.908Z,79.84
2019-01-08T12:16:02.601Z,79.45
2019-01-08T12:20:57.192Z,79.32
2019-01-08T12:25:51.830Z,79.24
2019-01-08T12:30:46.582Z,78.58
2019-01-08T12:35:41.186Z,78.79
2019-01-08T12:40:42.987Z,78.56
2019-01-08T12:45:38.056Z,79.62
2019-01-08T12:50:33.159Z,80.77
2019-01-08T12:55:27.959Z,81.14
2019-01-08T13:00:22.587Z,81.17
2019-01-08T13:05:17.255Z,81.87
2019-01-08T13:10:11.984Z,82.65
2019-01-08T13:15:07.718Z,83.01
2019-01-08T13:20:03.939Z,82.74
2019-01-08T13:25:04.784Z,83.03
2019-01-08T13:30:06.078Z,84.18
2019-01-08T13:35:05.014Z,84.43
2019-01-08T13:39:59.739Z,83.31
2019-01-08T13:44:54.386Z,83.42
2019-01-08T13:49:48.976Z,83.14
2019-01-08T13:54:43.573Z,82.24
2019-01-08T13:59:38.207Z,81.42
2019-01-08T14:04:33.100Z,80.10
2019-01-08T14:09:29.571Z,78.99
2019-01-08T14:14:26.153Z,77.51
2019-01-08T14:19:20.915Z,77.46
2019-01-08T14:24:15.530Z,77.33
2019-01-08T14:29:10.373Z,77.01
2019-01-08T14:34:05.574Z,76.75
2019-01-08T14:39:00.724Z,77.17
2019-01-08T14:43:55.356Z,76.74
2019-01-08T14:48:50.133Z,76.91
2019-01-08T14:53:44.741Z,77.05
2019-01-08T14:58:39.426Z,78.76
2019-01-08T15:03:34.013Z,79.22
2019-01-08T15:08:29.752Z,79.52
2019-01-08T15:13:28.436Z,79.29
2019-01-08T15:18:25.185Z,79.54
2019-01-08T15:23:23.741Z,78.55
2019-01-08T15:28:19.628Z,78.55
2019-01-08T15:33:14.832Z,79.48
2019-01-08T15:38:09.914Z,80.06
2019-01-08T15:43:05.182Z,81.07
2019-01-08T15:48:00.060Z,81.82
2019-01-08T15:52:55.229Z,82.51
2019-01-08T15:57:50.781Z,83.27
2019-01-08T16:02:45.455Z,81.42
2019-01-08T16:07:40.096Z,81.17
2019-01-08T16:12:35.563Z,81.41
2019-01-08T16:17:30.289Z,81.46
2019-01-08T16:22:24.897Z,81.44
2019-01-08T16:27:19.622Z,79.99
2019-01-08T16:32:14.230Z,79.93
2019-01-08T16:37:08.841Z,79.22
2019-01-08T16:42:03.552Z,79.27
2019-01-08T16:46:58.140Z,79.19
2019-01-08T16:51:53.572Z,78.85
2019-01-08T16:56:48.217Z,78.43
2019-01-08T17:01:42.846Z,77.75
2019-01-08T17:06:37.456Z,77.90
2019-01-08T17:11:32.064Z,77.75
2019-01-08T17:16:26.646Z,77.59
2019-01-08T17:21:21.248Z,77.27
2019-01-08T17:26:15.825Z,78.04
2019-01-08T17:31:10.509Z,78.22
2019-01-08T17:36:05.154Z,78.52
2019-01-08T17:40:59.891Z,78.64
2019-01-08T17:45:55.649Z,78.71
2019-01-08T17:50:50.332Z,79.46
2019-01-08T17:55:45.105Z,79.57
2019-01-08T18:00:39.709Z,79.91
2019-01-08T18:05:34.571Z,79.78
2019-01-08T18:10:29.181Z,80.25
2019-01-08T18:15:23.848Z,80.67
2019-01-08T18:20:18.471Z,81.04
2019-01-08T18:25:13.063Z,81.89
2019-01-08T18:30:09.398Z,82.37
2019-01-08T18:35:03.978Z,82.52
2019-01-08T18:39:58.579Z,82.24
2019-01-08T18:44:53.162Z,82.43
2019-01-08T18:49:47.799Z,82.78
2019-01-08T18:54:42.429Z,82.68
2019-01-08T18:59:37.006Z,81.88
2019-01-08T19:04:31.597Z,82.55
2019-01-08T19:09:30.212Z,82.22
2019-01-08T19:14:32.694Z,81.95
2019-01-08T19:19:27.283Z,82.00
2019-01-08T19:24:22.013Z,82.05
2019-01-08T19:29:16.627Z,82.52
2019-01-08T19:34:11.207Z,84.45
2019-01-08T19:39:07.877Z,84.53
2019-01-08T19:44:02.499Z,84.13
2019-01-08T19:48:57.113Z,83.86
2019-01-08T19:53:51.706Z,84.16
2019-01-08T19:58:46.327Z,84.68
2019-01-08T20:03:40.911Z,84.76
2019-01-08T20:08:35.515Z,85.06
2019-01-08T20:13:30.101Z,85.52
2019-01-08T20:18:24.705Z,85.49
2019-01-08T20:23:19.303Z,85.67
2019-01-08T20:28:13.910Z,85.79
2019-01-08T20:33:08.499Z,85.74
2019-01-08T20:38:03.100Z,85.94
2019-01-08T20:42:57.704Z,85.89
2019-01-08T20:47:52.343Z,85.86
2019-01-08T20:52:46.925Z,85.68
2019-01-08T20:57:41.526Z,85.08
2019-01-08T21:02:36.112Z,85.14
2019-01-08T21:07:30.716Z,85.03
2019-01-08T21:12:25.311Z,85.38
2019-01-08T21:17:19.907Z,85.02
2019-01-08T21:22:14.480Z,85.05
2019-01-08T21:27:09.152Z,84.48
2019-01-08T21:32:03.860Z,82.90
2019-01-08T21:36:58.474Z,83.47
2019-01-08T21:41:53.072Z,83.01
2019-01-08T21:46:47.740Z,83.08
2019-01-08T21:51:42.396Z,83.19
2019-01-08T21:56:37.073Z,83.65
2019-01-08T22:01:31.648Z,84.53
2019-01-08T22:06:26.249Z,85.06
2019-01-08T22:11:20.912Z,85.10
2019-01-08T22:16:15.541Z,85.96
2019-01-08T22:21:10.226Z,85.13
2019-01-08T22:26:04.891Z,84.48
2019-01-08T22:31:00.754Z,84.93
2019-01-08T22:35:55.599Z,84.32
2019-01-08T22:40:50.189Z,84.22
2019-01-08T22:45:44.807Z,83.50
2019-01-08T22:50:39.384Z,83.56
2019-01-08T22:55:34.020Z,84.00
2019-01-08T23:00:35.612Z,83.55
2019-01-08T23:05:30.417Z,83.22
2019-01-08T23:10:25.746Z,83.50
2019-01-08T23:15:20.604Z,83.60
2019-01-08T23:20:15.186Z,83.87
2019-01-08T23:25:09.873Z,84.65
2019-01-08T23:30:06.738Z,84.79
2019-01-08T23:35:01.345Z,84.20
2019-01-08T23:39:55.946Z,83.76
2019-01-08T23:44:50.565Z,84.28
2019-01-08T23:49:45.153Z,85.33
2019-01-08T23:54:43.610Z,86.25
2019-01-08T23:59:38.186Z,87.54
